sensor_id;sensor_type;location;lat;lon;timestamp;P1;durP1;ratioP1;P2;durP2;ratioP2
19329;SDS011;9799;48.214;16.388;2023-07-20T00:03:10;5.07;;;4.32;;
19329;SDS011;9799;48.214;16.388;2023-07-20T00:06:36;5.82;;;4.78;;
19329;SDS011;9799;48.214;16.388;2023-07-20T00:10:01;5.95;;;4.85;;
19329;SDS011;9799;48.214;16.388;2023-07-20T00:13:22;6.45;;;5.10;;
19329;SDS011;9799;48.214;16.388;2023-07-20T00:16:43;5.18;;;4.53;;
19329;SDS011;9799;48.214;16.388;2023-07-20T00:20:06;6.78;;;4.85;;
19329;SDS011;9799;48.214;16.388;2023-07-20T00:23:28;5.25;;;4.72;;
19329;SDS011;9799;48.214;16.388;2023-07-20T00:26:50;7.63;;;5.35;;
19329;SDS011;9799;48.214;16.388;2023-07-20T00:30:12;7.47;;;4.90;;
19329;SDS011;9799;48.214;16.388;2023-07-20T00:33:33;6.32;;;4.70;;
19329;SDS011;9799;48.214;16.388;2023-07-20T00:36:54;8.93;;;5.05;;
19329;SDS011;9799;48.214;16.388;2023-07-20T00:40:16;6.32;;;5.38;;
19329;SDS011;9799;48.214;16.388;2023-07-20T00:43:38;5.03;;;4.53;;
19329;SDS011;9799;48.214;16.388;2023-07-20T00:47:00;5.38;;;4.38;;
19329;SDS011;9799;48.214;16.388;2023-07-20T00:50:21;6.15;;;4.80;;
19329;SDS011;9799;48.214;16.388;2023-07-20T00:53:43;4.95;;;4.32;;
19329;SDS011;9799;48.214;16.388;2023-07-20T00:57:04;7.57;;;5.97;;
19329;SDS011;9799;48.214;16.388;2023-07-20T01:00:29;7.75;;;4.93;;
19329;SDS011;9799;48.214;16.388;2023-07-20T01:03:50;6.15;;;5.18;;
19329;SDS011;9799;48.214;16.388;2023-07-20T01:07:12;6.95;;;5.38;;
19329;SDS011;9799;48.214;16.388;2023-07-20T01:10:38;5.60;;;5.00;;
19329;SDS011;9799;48.214;16.388;2023-07-20T01:14:04;6.78;;;5.63;;
19329;SDS011;9799;48.214;16.388;2023-07-20T01:17:27;7.13;;;5.57;;
19329;SDS011;9799;48.214;16.388;2023-07-20T01:20:48;7.13;;;5.10;;
19329;SDS011;9799;48.214;16.388;2023-07-20T01:28:05;7.05;;;5.43;;
19329;SDS011;9799;48.214;16.388;2023-07-20T01:31:55;6.75;;;5.18;;
19329;SDS011;9799;48.214;16.388;2023-07-20T01:35:45;5.63;;;5.03;;
19329;SDS011;9799;48.214;16.388;2023-07-20T01:39:34;5.65;;;5.15;;
19329;SDS011;9799;48.214;16.388;2023-07-20T01:42:56;5.00;;;4.50;;
19329;SDS011;9799;48.214;16.388;2023-07-20T01:46:18;5.85;;;4.85;;
19329;SDS011;9799;48.214;16.388;2023-07-20T01:49:40;5.00;;;4.53;;
19329;SDS011;9799;48.214;16.388;2023-07-20T01:53:01;6.40;;;4.75;;
19329;SDS011;9799;48.214;16.388;2023-07-20T01:56:23;5.72;;;5.18;;
19329;SDS011;9799;48.214;16.388;2023-07-20T01:59:44;5.38;;;4.65;;
19329;SDS011;9799;48.214;16.388;2023-07-20T02:03:05;8.30;;;5.43;;
19329;SDS011;9799;48.214;16.388;2023-07-20T02:06:28;6.28;;;4.70;;
19329;SDS011;9799;48.214;16.388;2023-07-20T02:09:49;8.45;;;5.00;;
19329;SDS011;9799;48.214;16.388;2023-07-20T02:13:10;6.30;;;5.43;;
19329;SDS011;9799;48.214;16.388;2023-07-20T02:16:32;6.13;;;5.03;;
19329;SDS011;9799;48.214;16.388;2023-07-20T02:19:53;7.80;;;5.20;;
19329;SDS011;9799;48.214;16.388;2023-07-20T02:23:16;6.45;;;5.05;;
19329;SDS011;9799;48.214;16.388;2023-07-20T02:26:37;7.22;;;5.13;;
19329;SDS011;9799;48.214;16.388;2023-07-20T02:29:58;6.50;;;5.80;;
19329;SDS011;9799;48.214;16.388;2023-07-20T02:33:19;5.60;;;5.10;;
19329;SDS011;9799;48.214;16.388;2023-07-20T02:36:41;5.97;;;4.88;;
19329;SDS011;9799;48.214;16.388;2023-07-20T02:40:04;7.20;;;4.43;;
19329;SDS011;9799;48.214;16.388;2023-07-20T02:43:26;5.72;;;5.05;;
19329;SDS011;9799;48.214;16.388;2023-07-20T02:46:47;8.07;;;5.07;;
19329;SDS011;9799;48.214;16.388;2023-07-20T02:50:09;5.47;;;4.90;;
19329;SDS011;9799;48.214;16.388;2023-07-20T02:53:32;6.25;;;5.25;;
19329;SDS011;9799;48.214;16.388;2023-07-20T02:56:55;6.10;;;4.65;;
19329;SDS011;9799;48.214;16.388;2023-07-20T03:00:16;6.05;;;4.72;;
19329;SDS011;9799;48.214;16.388;2023-07-20T03:03:38;5.47;;;4.78;;
19329;SDS011;9799;48.214;16.388;2023-07-20T03:07:00;6.60;;;5.10;;
19329;SDS011;9799;48.214;16.388;2023-07-20T03:10:22;5.65;;;4.72;;
19329;SDS011;9799;48.214;16.388;2023-07-20T03:13:45;7.90;;;5.20;;
19329;SDS011;9799;48.214;16.388;2023-07-20T03:17:06;8.05;;;4.65;;
19329;SDS011;9799;48.214;16.388;2023-07-20T03:20:27;6.05;;;5.25;;
19329;SDS011;9799;48.214;16.388;2023-07-20T03:23:49;10.13;;;4.95;;
19329;SDS011;9799;48.214;16.388;2023-07-20T03:27:10;5.20;;;4.70;;
19329;SDS011;9799;48.214;16.388;2023-07-20T03:30:32;5.57;;;4.70;;
19329;SDS011;9799;48.214;16.388;2023-07-20T03:33:54;5.78;;;4.50;;
19329;SDS011;9799;48.214;16.388;2023-07-20T03:37:16;7.97;;;4.60;;
19329;SDS011;9799;48.214;16.388;2023-07-20T03:40:37;5.93;;;4.10;;
19329;SDS011;9799;48.214;16.388;2023-07-20T03:43:58;6.63;;;4.95;;
19329;SDS011;9799;48.214;16.388;2023-07-20T03:47:20;4.65;;;4.15;;
19329;SDS011;9799;48.214;16.388;2023-07-20T03:50:43;5.00;;;4.38;;
19329;SDS011;9799;48.214;16.388;2023-07-20T03:54:04;4.82;;;4.10;;
19329;SDS011;9799;48.214;16.388;2023-07-20T03:57:27;5.28;;;4.78;;
19329;SDS011;9799;48.214;16.388;2023-07-20T04:00:48;4.75;;;4.25;;
19329;SDS011;9799;48.214;16.388;2023-07-20T04:04:13;6.10;;;4.50;;
19329;SDS011;9799;48.214;16.388;2023-07-20T04:07:36;7.03;;;4.88;;
19329;SDS011;9799;48.214;16.388;2023-07-20T04:10:57;8.05;;;4.90;;
19329;SDS011;9799;48.214;16.388;2023-07-20T04:14:18;5.45;;;4.50;;
19329;SDS011;9799;48.214;16.388;2023-07-20T04:17:39;5.57;;;4.65;;
19329;SDS011;9799;48.214;16.388;2023-07-20T04:21:02;8.25;;;5.00;;
19329;SDS011;9799;48.214;16.388;2023-07-20T04:24:23;4.53;;;4.13;;
19329;SDS011;9799;48.214;16.388;2023-07-20T04:27:44;6.18;;;4.55;;
19329;SDS011;9799;48.214;16.388;2023-07-20T04:31:09;5.20;;;4.15;;
19329;SDS011;9799;48.214;16.388;2023-07-20T04:34:31;5.57;;;4.63;;
19329;SDS011;9799;48.214;16.388;2023-07-20T04:37:58;4.95;;;4.28;;
19329;SDS011;9799;48.214;16.388;2023-07-20T04:41:19;6.88;;;6.25;;
19329;SDS011;9799;48.214;16.388;2023-07-20T04:44:40;4.57;;;4.18;;
19329;SDS011;9799;48.214;16.388;2023-07-20T04:48:02;7.15;;;5.22;;
19329;SDS011;9799;48.214;16.388;2023-07-20T04:51:23;5.38;;;4.75;;
19329;SDS011;9799;48.214;16.388;2023-07-20T04:54:46;5.57;;;4.82;;
19329;SDS011;9799;48.214;16.388;2023-07-20T04:58:07;6.07;;;4.78;;
19329;SDS011;9799;48.214;16.388;2023-07-20T05:01:28;5.40;;;4.88;;
19329;SDS011;9799;48.214;16.388;2023-07-20T05:04:49;5.20;;;4.80;;
19329;SDS011;9799;48.214;16.388;2023-07-20T05:08:10;5.55;;;4.35;;
19329;SDS011;9799;48.214;16.388;2023-07-20T05:11:35;6.35;;;4.85;;
19329;SDS011;9799;48.214;16.388;2023-07-20T05:14:56;6.13;;;4.88;;
19329;SDS011;9799;48.214;16.388;2023-07-20T05:18:17;6.45;;;5.00;;
19329;SDS011;9799;48.214;16.388;2023-07-20T05:21:40;5.72;;;5.00;;
19329;SDS011;9799;48.214;16.388;2023-07-20T05:25:01;5.30;;;4.80;;
19329;SDS011;9799;48.214;16.388;2023-07-20T05:28:23;6.93;;;4.88;;
19329;SDS011;9799;48.214;16.388;2023-07-20T05:31:45;5.90;;;5.00;;
19329;SDS011;9799;48.214;16.388;2023-07-20T05:35:07;5.50;;;4.95;;
19329;SDS011;9799;48.214;16.388;2023-07-20T05:38:30;6.03;;;5.28;;
19329;SDS011;9799;48.214;16.388;2023-07-20T05:41:51;5.80;;;4.68;;
19329;SDS011;9799;48.214;16.388;2023-07-20T05:45:14;10.30;;;6.18;;
19329;SDS011;9799;48.214;16.388;2023-07-20T05:48:35;13.23;;;5.45;;
19329;SDS011;9799;48.214;16.388;2023-07-20T05:51:56;25.98;;;6.88;;
19329;SDS011;9799;48.214;16.388;2023-07-20T05:55:18;9.88;;;5.22;;
19329;SDS011;9799;48.214;16.388;2023-07-20T05:58:39;7.10;;;5.05;;
19329;SDS011;9799;48.214;16.388;2023-07-20T06:02:02;8.18;;;5.30;;
19329;SDS011;9799;48.214;16.388;2023-07-20T06:05:23;19.85;;;6.20;;
19329;SDS011;9799;48.214;16.388;2023-07-20T06:08:44;7.43;;;5.13;;
19329;SDS011;9799;48.214;16.388;2023-07-20T06:12:06;6.57;;;5.20;;
19329;SDS011;9799;48.214;16.388;2023-07-20T06:15:30;4.80;;;4.32;;
19329;SDS011;9799;48.214;16.388;2023-07-20T06:18:55;9.32;;;4.60;;
19329;SDS011;9799;48.214;16.388;2023-07-20T06:22:17;10.95;;;5.20;;
19329;SDS011;9799;48.214;16.388;2023-07-20T06:25:38;7.35;;;4.30;;
19329;SDS011;9799;48.214;16.388;2023-07-20T06:28:59;6.90;;;5.07;;
19329;SDS011;9799;48.214;16.388;2023-07-20T06:32:20;7.72;;;4.63;;
19329;SDS011;9799;48.214;16.388;2023-07-20T06:35:43;6.88;;;6.22;;
19329;SDS011;9799;48.214;16.388;2023-07-20T06:39:04;5.32;;;4.82;;
19329;SDS011;9799;48.214;16.388;2023-07-20T06:42:25;5.13;;;4.22;;
19329;SDS011;9799;48.214;16.388;2023-07-20T06:45:50;8.05;;;5.53;;
19329;SDS011;9799;48.214;16.388;2023-07-20T06:49:23;5.40;;;4.85;;
19329;SDS011;9799;48.214;16.388;2023-07-20T06:52:46;9.45;;;4.93;;
19329;SDS011;9799;48.214;16.388;2023-07-20T06:56:07;11.30;;;5.35;;
19329;SDS011;9799;48.214;16.388;2023-07-20T06:59:28;5.80;;;5.07;;
19329;SDS011;9799;48.214;16.388;2023-07-20T07:02:50;5.20;;;4.70;;
19329;SDS011;9799;48.214;16.388;2023-07-20T07:06:10;6.28;;;5.68;;
19329;SDS011;9799;48.214;16.388;2023-07-20T07:09:33;6.07;;;4.82;;
19329;SDS011;9799;48.214;16.388;2023-07-20T07:12:54;7.75;;;4.75;;
19329;SDS011;9799;48.214;16.388;2023-07-20T07:16:15;6.63;;;5.65;;
19329;SDS011;9799;48.214;16.388;2023-07-20T07:19:38;6.20;;;5.03;;
19329;SDS011;9799;48.214;16.388;2023-07-20T07:23:00;5.47;;;4.63;;
19329;SDS011;9799;48.214;16.388;2023-07-20T07:26:22;6.95;;;5.43;;
19329;SDS011;9799;48.214;16.388;2023-07-20T07:29:44;5.20;;;4.38;;
19329;SDS011;9799;48.214;16.388;2023-07-20T07:33:05;5.63;;;5.05;;
19329;SDS011;9799;48.214;16.388;2023-07-20T07:36:27;5.22;;;4.70;;
19329;SDS011;9799;48.214;16.388;2023-07-20T07:39:48;6.00;;;4.63;;
19329;SDS011;9799;48.214;16.388;2023-07-20T07:43:10;5.32;;;4.68;;
19329;SDS011;9799;48.214;16.388;2023-07-20T07:46:33;6.57;;;4.68;;
19329;SDS011;9799;48.214;16.388;2023-07-20T07:49:54;5.95;;;4.25;;
19329;SDS011;9799;48.214;16.388;2023-07-20T07:53:16;4.88;;;4.35;;
19329;SDS011;9799;48.214;16.388;2023-07-20T07:56:37;4.85;;;4.35;;
19329;SDS011;9799;48.214;16.388;2023-07-20T08:00:00;5.72;;;5.10;;
19329;SDS011;9799;48.214;16.388;2023-07-20T08:03:22;4.53;;;3.80;;
19329;SDS011;9799;48.214;16.388;2023-07-20T08:06:44;4.70;;;4.20;;
19329;SDS011;9799;48.214;16.388;2023-07-20T08:10:06;5.10;;;4.60;;
19329;SDS011;9799;48.214;16.388;2023-07-20T08:13:28;7.95;;;5.03;;
19329;SDS011;9799;48.214;16.388;2023-07-20T08:16:53;6.47;;;4.40;;
19329;SDS011;9799;48.214;16.388;2023-07-20T08:20:14;5.18;;;4.63;;
19329;SDS011;9799;48.214;16.388;2023-07-20T08:23:36;5.22;;;4.72;;
19329;SDS011;9799;48.214;16.388;2023-07-20T08:26:57;6.63;;;4.85;;
19329;SDS011;9799;48.214;16.388;2023-07-20T08:30:20;9.88;;;4.90;;
19329;SDS011;9799;48.214;16.388;2023-07-20T08:33:44;6.22;;;4.55;;
19329;SDS011;9799;48.214;16.388;2023-07-20T08:37:06;5.38;;;4.88;;
19329;SDS011;9799;48.214;16.388;2023-07-20T08:40:29;6.57;;;4.45;;
19329;SDS011;9799;48.214;16.388;2023-07-20T08:43:50;4.72;;;4.28;;
19329;SDS011;9799;48.214;16.388;2023-07-20T08:47:15;5.30;;;4.80;;
19329;SDS011;9799;48.214;16.388;2023-07-20T08:50:38;7.05;;;4.97;;
19329;SDS011;9799;48.214;16.388;2023-07-20T08:54:00;5.43;;;4.53;;
19329;SDS011;9799;48.214;16.388;2023-07-20T08:57:22;5.25;;;4.75;;
19329;SDS011;9799;48.214;16.388;2023-07-20T09:00:43;5.05;;;4.57;;
19329;SDS011;9799;48.214;16.388;2023-07-20T09:04:05;4.75;;;4.35;;
19329;SDS011;9799;48.214;16.388;2023-07-20T09:07:27;4.68;;;4.28;;
19329;SDS011;9799;48.214;16.388;2023-07-20T09:10:49;6.72;;;5.13;;
19329;SDS011;9799;48.214;16.388;2023-07-20T09:14:10;7.30;;;4.43;;
19329;SDS011;9799;48.214;16.388;2023-07-20T09:17:32;4.72;;;4.30;;
19329;SDS011;9799;48.214;16.388;2023-07-20T09:20:53;6.28;;;4.25;;
19329;SDS011;9799;48.214;16.388;2023-07-20T09:24:20;9.23;;;6.15;;
19329;SDS011;9799;48.214;16.388;2023-07-20T09:27:42;8.55;;;5.10;;
19329;SDS011;9799;48.214;16.388;2023-07-20T09:31:07;8.20;;;4.50;;
19329;SDS011;9799;48.214;16.388;2023-07-20T09:34:38;11.45;;;8.70;;
19329;SDS011;9799;48.214;16.388;2023-07-20T09:38:00;8.20;;;5.53;;
19329;SDS011;9799;48.214;16.388;2023-07-20T09:41:23;6.30;;;4.50;;
19329;SDS011;9799;48.214;16.388;2023-07-20T09:44:45;4.95;;;4.47;;
19329;SDS011;9799;48.214;16.388;2023-07-20T09:48:07;8.40;;;5.03;;
19329;SDS011;9799;48.214;16.388;2023-07-20T09:51:29;6.80;;;4.78;;
19329;SDS011;9799;48.214;16.388;2023-07-20T09:54:51;6.18;;;5.20;;
19329;SDS011;9799;48.214;16.388;2023-07-20T09:58:14;5.70;;;5.20;;
19329;SDS011;9799;48.214;16.388;2023-07-20T10:01:36;5.50;;;5.00;;
19329;SDS011;9799;48.214;16.388;2023-07-20T10:05:02;6.30;;;4.60;;
19329;SDS011;9799;48.214;16.388;2023-07-20T10:08:24;6.72;;;4.80;;
19329;SDS011;9799;48.214;16.388;2023-07-20T10:11:48;4.63;;;4.20;;
19329;SDS011;9799;48.214;16.388;2023-07-20T10:15:13;6.03;;;4.68;;
19329;SDS011;9799;48.214;16.388;2023-07-20T10:18:42;5.65;;;4.55;;
19329;SDS011;9799;48.214;16.388;2023-07-20T10:22:11;15.02;;;4.25;;
19329;SDS011;9799;48.214;16.388;2023-07-20T10:25:35;6.68;;;5.55;;
19329;SDS011;9799;48.214;16.388;2023-07-20T10:28:57;9.80;;;4.32;;
19329;SDS011;9799;48.214;16.388;2023-07-20T10:32:21;4.97;;;4.25;;
19329;SDS011;9799;48.214;16.388;2023-07-20T10:35:52;4.38;;;3.97;;
19329;SDS011;9799;48.214;16.388;2023-07-20T10:39:22;7.82;;;3.92;;
19329;SDS011;9799;48.214;16.388;2023-07-20T10:42:46;5.00;;;3.70;;
19329;SDS011;9799;48.214;16.388;2023-07-20T10:46:08;8.00;;;4.13;;
19329;SDS011;9799;48.214;16.388;2023-07-20T10:49:34;7.45;;;3.67;;
19329;SDS011;9799;48.214;16.388;2023-07-20T10:53:03;6.00;;;3.70;;
19329;SDS011;9799;48.214;16.388;2023-07-20T10:56:26;5.22;;;3.35;;
19329;SDS011;9799;48.214;16.388;2023-07-20T10:59:49;6.55;;;3.78;;
19329;SDS011;9799;48.214;16.388;2023-07-20T11:03:10;5.68;;;3.00;;
19329;SDS011;9799;48.214;16.388;2023-07-20T11:06:49;6.22;;;3.28;;
19329;SDS011;9799;48.214;16.388;2023-07-20T11:10:16;5.53;;;3.63;;
19329;SDS011;9799;48.214;16.388;2023-07-20T11:13:38;3.45;;;2.78;;
19329;SDS011;9799;48.214;16.388;2023-07-20T11:17:15;4.70;;;3.45;;
19329;SDS011;9799;48.214;16.388;2023-07-20T11:20:39;3.35;;;3.05;;
19329;SDS011;9799;48.214;16.388;2023-07-20T11:24:04;9.85;;;3.15;;
19329;SDS011;9799;48.214;16.388;2023-07-20T11:27:26;6.00;;;3.53;;
19329;SDS011;9799;48.214;16.388;2023-07-20T11:30:50;8.40;;;3.72;;
19329;SDS011;9799;48.214;16.388;2023-07-20T11:34:14;3.58;;;3.10;;
19329;SDS011;9799;48.214;16.388;2023-07-20T11:37:37;3.30;;;3.00;;
19329;SDS011;9799;48.214;16.388;2023-07-20T11:41:03;3.70;;;3.33;;
19329;SDS011;9799;48.214;16.388;2023-07-20T11:44:25;4.57;;;3.20;;
19329;SDS011;9799;48.214;16.388;2023-07-20T11:47:48;5.28;;;3.10;;
19329;SDS011;9799;48.214;16.388;2023-07-20T11:51:13;8.23;;;3.50;;
19329;SDS011;9799;48.214;16.388;2023-07-20T11:54:35;3.50;;;2.80;;
19329;SDS011;9799;48.214;16.388;2023-07-20T11:58:03;5.90;;;3.47;;
19329;SDS011;9799;48.214;16.388;2023-07-20T12:01:25;10.48;;;2.50;;
19329;SDS011;9799;48.214;16.388;2023-07-20T12:04:48;3.25;;;2.88;;
19329;SDS011;9799;48.214;16.388;2023-07-20T12:08:09;7.57;;;3.60;;
19329;SDS011;9799;48.214;16.388;2023-07-20T12:11:31;5.55;;;3.70;;
19329;SDS011;9799;48.214;16.388;2023-07-20T12:14:55;4.30;;;2.83;;
19329;SDS011;9799;48.214;16.388;2023-07-20T12:18:34;3.33;;;2.75;;
19329;SDS011;9799;48.214;16.388;2023-07-20T12:21:57;3.80;;;2.78;;
19329;SDS011;9799;48.214;16.388;2023-07-20T12:25:19;6.20;;;3.22;;
19329;SDS011;9799;48.214;16.388;2023-07-20T12:28:40;3.20;;;2.78;;
19329;SDS011;9799;48.214;16.388;2023-07-20T12:32:04;2.92;;;2.50;;
19329;SDS011;9799;48.214;16.388;2023-07-20T12:35:26;7.70;;;3.03;;
19329;SDS011;9799;48.214;16.388;2023-07-20T12:38:47;4.90;;;2.95;;
19329;SDS011;9799;48.214;16.388;2023-07-20T12:42:08;4.07;;;3.00;;
19329;SDS011;9799;48.214;16.388;2023-07-20T12:45:29;2.97;;;2.55;;
19329;SDS011;9799;48.214;16.388;2023-07-20T12:48:52;2.90;;;2.53;;
19329;SDS011;9799;48.214;16.388;2023-07-20T12:52:13;7.00;;;3.10;;
19329;SDS011;9799;48.214;16.388;2023-07-20T12:55:34;2.85;;;2.58;;
19329;SDS011;9799;48.214;16.388;2023-07-20T12:58:55;7.47;;;3.38;;
19329;SDS011;9799;48.214;16.388;2023-07-20T13:02:17;4.95;;;2.60;;
19329;SDS011;9799;48.214;16.388;2023-07-20T13:05:40;10.70;;;2.50;;
19329;SDS011;9799;48.214;16.388;2023-07-20T13:09:01;2.72;;;2.53;;
19329;SDS011;9799;48.214;16.388;2023-07-20T13:12:22;2.95;;;2.65;;
19329;SDS011;9799;48.214;16.388;2023-07-20T13:15:44;2.70;;;2.50;;
19329;SDS011;9799;48.214;16.388;2023-07-20T13:19:07;4.18;;;2.08;;
19329;SDS011;9799;48.214;16.388;2023-07-20T13:22:29;4.97;;;2.45;;
19329;SDS011;9799;48.214;16.388;2023-07-20T13:25:50;2.58;;;2.38;;
19329;SDS011;9799;48.214;16.388;2023-07-20T13:29:12;8.82;;;3.13;;
19329;SDS011;9799;48.214;16.388;2023-07-20T13:32:33;3.50;;;2.58;;
19329;SDS011;9799;48.214;16.388;2023-07-20T13:35:59;2.88;;;2.58;;
19329;SDS011;9799;48.214;16.388;2023-07-20T13:39:26;3.53;;;2.25;;
19329;SDS011;9799;48.214;16.388;2023-07-20T13:42:48;2.80;;;2.55;;
19329;SDS011;9799;48.214;16.388;2023-07-20T13:46:09;2.85;;;2.63;;
19329;SDS011;9799;48.214;16.388;2023-07-20T13:49:30;3.22;;;2.45;;
19329;SDS011;9799;48.214;16.388;2023-07-20T13:52:52;4.15;;;2.85;;
19329;SDS011;9799;48.214;16.388;2023-07-20T13:56:15;3.80;;;2.90;;
19329;SDS011;9799;48.214;16.388;2023-07-20T13:59:36;3.13;;;2.90;;
19329;SDS011;9799;48.214;16.388;2023-07-20T14:02:57;5.72;;;3.28;;
19329;SDS011;9799;48.214;16.388;2023-07-20T14:06:18;4.15;;;2.85;;
19329;SDS011;9799;48.214;16.388;2023-07-20T14:09:39;4.07;;;2.67;;
19329;SDS011;9799;48.214;16.388;2023-07-20T14:13:02;2.97;;;2.70;;
19329;SDS011;9799;48.214;16.388;2023-07-20T14:16:23;4.72;;;2.90;;
19329;SDS011;9799;48.214;16.388;2023-07-20T14:19:45;5.28;;;3.13;;
19329;SDS011;9799;48.214;16.388;2023-07-20T14:23:06;5.65;;;3.03;;
19329;SDS011;9799;48.214;16.388;2023-07-20T14:26:27;3.15;;;2.85;;
19329;SDS011;9799;48.214;16.388;2023-07-20T14:29:50;5.70;;;3.20;;
19329;SDS011;9799;48.214;16.388;2023-07-20T14:33:12;4.95;;;3.05;;
19329;SDS011;9799;48.214;16.388;2023-07-20T14:36:33;3.13;;;2.83;;
19329;SDS011;9799;48.214;16.388;2023-07-20T14:39:54;3.50;;;3.20;;
19329;SDS011;9799;48.214;16.388;2023-07-20T14:43:16;4.88;;;3.75;;
19329;SDS011;9799;48.214;16.388;2023-07-20T14:46:38;5.03;;;3.22;;
19329;SDS011;9799;48.214;16.388;2023-07-20T14:49:59;4.63;;;2.80;;
19329;SDS011;9799;48.214;16.388;2023-07-20T14:53:21;4.25;;;2.78;;
19329;SDS011;9799;48.214;16.388;2023-07-20T14:56:48;3.80;;;3.50;;
19329;SDS011;9799;48.214;16.388;2023-07-20T15:00:12;3.88;;;3.47;;
19329;SDS011;9799;48.214;16.388;2023-07-20T15:03:35;6.28;;;3.50;;
19329;SDS011;9799;48.214;16.388;2023-07-20T15:06:56;2.70;;;2.50;;
19329;SDS011;9799;48.214;16.388;2023-07-20T15:10:18;3.40;;;3.10;;
19329;SDS011;9799;48.214;16.388;2023-07-20T15:13:39;3.25;;;3.00;;
19329;SDS011;9799;48.214;16.388;2023-07-20T15:17:02;3.25;;;2.95;;
19329;SDS011;9799;48.214;16.388;2023-07-20T15:20:25;3.47;;;2.70;;
19329;SDS011;9799;48.214;16.388;2023-07-20T15:23:46;3.47;;;2.65;;
19329;SDS011;9799;48.214;16.388;2023-07-20T15:27:08;3.17;;;2.63;;
19329;SDS011;9799;48.214;16.388;2023-07-20T15:30:29;2.53;;;2.33;;
19329;SDS011;9799;48.214;16.388;2023-07-20T15:33:53;4.85;;;2.78;;
19329;SDS011;9799;48.214;16.388;2023-07-20T15:37:15;4.28;;;2.60;;
19329;SDS011;9799;48.214;16.388;2023-07-20T15:40:36;3.92;;;2.60;;
19329;SDS011;9799;48.214;16.388;2023-07-20T15:43:58;2.70;;;2.50;;
19329;SDS011;9799;48.214;16.388;2023-07-20T15:47:19;3.05;;;2.40;;
19329;SDS011;9799;48.214;16.388;2023-07-20T15:50:40;4.15;;;2.83;;
19329;SDS011;9799;48.214;16.388;2023-07-20T15:54:04;4.40;;;2.28;;
19329;SDS011;9799;48.214;16.388;2023-07-20T15:57:26;4.38;;;2.30;;
19329;SDS011;9799;48.214;16.388;2023-07-20T16:00:52;2.70;;;2.42;;
19329;SDS011;9799;48.214;16.388;2023-07-20T16:04:15;2.47;;;2.28;;
19329;SDS011;9799;48.214;16.388;2023-07-20T16:07:36;6.28;;;2.83;;
19329;SDS011;9799;48.214;16.388;2023-07-20T16:10:59;5.30;;;1.88;;
19329;SDS011;9799;48.214;16.388;2023-07-20T16:14:20;2.85;;;2.45;;
19329;SDS011;9799;48.214;16.388;2023-07-20T16:17:41;2.83;;;2.25;;
19329;SDS011;9799;48.214;16.388;2023-07-20T16:21:03;4.07;;;2.30;;
19329;SDS011;9799;48.214;16.388;2023-07-20T16:24:24;4.15;;;2.85;;
19329;SDS011;9799;48.214;16.388;2023-07-20T16:27:46;2.58;;;2.15;;
19329;SDS011;9799;48.214;16.388;2023-07-20T16:31:08;3.13;;;2.33;;
19329;SDS011;9799;48.214;16.388;2023-07-20T16:34:30;5.10;;;2.60;;
19329;SDS011;9799;48.214;16.388;2023-07-20T16:37:51;2.58;;;2.38;;
19329;SDS011;9799;48.214;16.388;2023-07-20T16:41:12;4.68;;;2.22;;
19329;SDS011;9799;48.214;16.388;2023-07-20T16:44:35;7.00;;;2.58;;
19329;SDS011;9799;48.214;16.388;2023-07-20T16:47:56;5.10;;;2.38;;
19329;SDS011;9799;48.214;16.388;2023-07-20T16:51:17;2.60;;;2.10;;
19329;SDS011;9799;48.214;16.388;2023-07-20T16:54:39;2.90;;;2.33;;
19329;SDS011;9799;48.214;16.388;2023-07-20T16:58:01;4.10;;;2.65;;
19329;SDS011;9799;48.214;16.388;2023-07-20T17:01:23;3.38;;;2.58;;
19329;SDS011;9799;48.214;16.388;2023-07-20T17:04:47;4.22;;;2.47;;
19329;SDS011;9799;48.214;16.388;2023-07-20T17:08:08;2.30;;;2.05;;
19329;SDS011;9799;48.214;16.388;2023-07-20T17:11:29;2.30;;;2.10;;
19329;SDS011;9799;48.214;16.388;2023-07-20T17:14:50;3.03;;;2.63;;
19329;SDS011;9799;48.214;16.388;2023-07-20T17:18:13;5.05;;;2.78;;
19329;SDS011;9799;48.214;16.388;2023-07-20T17:21:34;2.90;;;2.33;;
19329;SDS011;9799;48.214;16.388;2023-07-20T17:24:56;3.55;;;2.47;;
19329;SDS011;9799;48.214;16.388;2023-07-20T17:28:17;3.65;;;2.50;;
19329;SDS011;9799;48.214;16.388;2023-07-20T17:31:38;3.88;;;2.55;;
19329;SDS011;9799;48.214;16.388;2023-07-20T17:35:02;3.05;;;2.58;;
19329;SDS011;9799;48.214;16.388;2023-07-20T17:38:23;3.17;;;2.25;;
19329;SDS011;9799;48.214;16.388;2023-07-20T17:41:45;2.60;;;2.40;;
19329;SDS011;9799;48.214;16.388;2023-07-20T17:45:09;3.13;;;2.72;;
19329;SDS011;9799;48.214;16.388;2023-07-20T17:48:31;5.70;;;3.45;;
19329;SDS011;9799;48.214;16.388;2023-07-20T17:51:54;5.82;;;2.90;;
19329;SDS011;9799;48.214;16.388;2023-07-20T17:55:18;4.35;;;3.05;;
19329;SDS011;9799;48.214;16.388;2023-07-20T17:58:40;6.93;;;2.28;;
19329;SDS011;9799;48.214;16.388;2023-07-20T18:02:03;4.25;;;2.22;;
19329;SDS011;9799;48.214;16.388;2023-07-20T18:05:25;4.43;;;2.47;;
19329;SDS011;9799;48.214;16.388;2023-07-20T18:08:49;2.58;;;2.28;;
19329;SDS011;9799;48.214;16.388;2023-07-20T18:12:11;5.32;;;2.88;;
19329;SDS011;9799;48.214;16.388;2023-07-20T18:15:32;3.80;;;2.45;;
19329;SDS011;9799;48.214;16.388;2023-07-20T18:18:55;2.60;;;2.40;;
19329;SDS011;9799;48.214;16.388;2023-07-20T18:22:17;5.07;;;2.47;;
19329;SDS011;9799;48.214;16.388;2023-07-20T18:25:43;3.13;;;2.63;;
19329;SDS011;9799;48.214;16.388;2023-07-20T18:29:04;2.38;;;2.17;;
19329;SDS011;9799;48.214;16.388;2023-07-20T18:32:26;8.90;;;2.38;;
19329;SDS011;9799;48.214;16.388;2023-07-20T18:35:48;2.50;;;2.22;;
19329;SDS011;9799;48.214;16.388;2023-07-20T18:39:13;2.88;;;2.38;;
19329;SDS011;9799;48.214;16.388;2023-07-20T18:42:36;7.45;;;3.00;;
19329;SDS011;9799;48.214;16.388;2023-07-20T18:45:58;4.82;;;2.88;;
19329;SDS011;9799;48.214;16.388;2023-07-20T18:49:19;5.10;;;3.00;;
19329;SDS011;9799;48.214;16.388;2023-07-20T18:52:41;4.40;;;2.83;;
19329;SDS011;9799;48.214;16.388;2023-07-20T18:56:05;3.47;;;3.17;;
19329;SDS011;9799;48.214;16.388;2023-07-20T18:59:28;3.03;;;2.72;;
19329;SDS011;9799;48.214;16.388;2023-07-20T19:02:52;6.55;;;3.00;;
19329;SDS011;9799;48.214;16.388;2023-07-20T19:06:14;3.50;;;2.75;;
19329;SDS011;9799;48.214;16.388;2023-07-20T19:09:35;5.60;;;3.08;;
19329;SDS011;9799;48.214;16.388;2023-07-20T19:12:59;5.75;;;3.15;;
19329;SDS011;9799;48.214;16.388;2023-07-20T19:16:22;5.07;;;3.00;;
19329;SDS011;9799;48.214;16.388;2023-07-20T19:19:44;4.80;;;2.72;;
19329;SDS011;9799;48.214;16.388;2023-07-20T19:23:07;5.45;;;3.03;;
19329;SDS011;9799;48.214;16.388;2023-07-20T19:26:30;4.30;;;2.92;;
19329;SDS011;9799;48.214;16.388;2023-07-20T19:29:52;2.97;;;2.67;;
19329;SDS011;9799;48.214;16.388;2023-07-20T19:33:15;6.00;;;3.13;;
19329;SDS011;9799;48.214;16.388;2023-07-20T19:36:38;5.28;;;2.53;;
19329;SDS011;9799;48.214;16.388;2023-07-20T19:40:01;7.20;;;2.85;;
19329;SDS011;9799;48.214;16.388;2023-07-20T19:43:24;4.43;;;2.33;;
19329;SDS011;9799;48.214;16.388;2023-07-20T19:46:45;6.78;;;2.80;;
19329;SDS011;9799;48.214;16.388;2023-07-20T19:50:12;4.68;;;2.47;;
19329;SDS011;9799;48.214;16.388;2023-07-20T19:53:36;3.70;;;3.20;;
19329;SDS011;9799;48.214;16.388;2023-07-20T19:56:58;4.78;;;2.80;;
19329;SDS011;9799;48.214;16.388;2023-07-20T20:00:29;8.20;;;2.90;;
19329;SDS011;9799;48.214;16.388;2023-07-20T20:03:51;4.88;;;2.78;;
19329;SDS011;9799;48.214;16.388;2023-07-20T20:07:17;4.25;;;2.78;;
19329;SDS011;9799;48.214;16.388;2023-07-20T20:10:40;3.17;;;2.72;;
19329;SDS011;9799;48.214;16.388;2023-07-20T20:14:01;5.70;;;2.70;;
19329;SDS011;9799;48.214;16.388;2023-07-20T20:17:24;3.13;;;2.80;;
19329;SDS011;9799;48.214;16.388;2023-07-20T20:20:47;4.72;;;2.78;;
19329;SDS011;9799;48.214;16.388;2023-07-20T20:24:11;3.60;;;2.83;;
19329;SDS011;9799;48.214;16.388;2023-07-20T20:27:32;3.35;;;3.05;;